Time;durP1;ratioP1;P1;durP2;ratioP2;P2;SDS_P1;SDS_P2;PMS_P1;PMS_P2;Temp;Humidity;BMP_temperature;BMP_pressure;BME280_temperature;BME280_humidity;BME280_pressure;Samples;Min_cycle;Max_cycle;Signal;HPM_P1;HPM_P2
2023/12/18 00:01:45;0.00;0.00;0.62;0.00;0.00;0.62;7.10;5.60;;;22.40;27.90;;;;;;2264261;61;20423;-61
2023/12/18 00:04:29;0.00;0.00;0.62;0.00;0.00;0.62;6.37;4.73;;;22.40;27.80;;;;;;2264649;61;20387;-61
2023/12/18 00:07:14;0.00;0.00;0.62;0.00;0.00;0.62;6.60;5.90;;;22.40;27.90;;;;;;2264477;61;20368;-61
2023/12/18 00:09:58;0.00;0.00;0.62;0.00;0.00;0.62;6.77;5.80;;;22.40;27.90;;;;;;2264697;61;20387;-57
2023/12/18 00:12:44;0.00;0.00;0.62;0.00;0.00;0.62;5.90;4.70;;;22.40;27.90;;;;;;2264160;61;20368;-58
2023/12/18 00:15:29;0.00;0.00;0.62;0.00;0.00;0.62;5.77;4.60;;;22.40;27.90;;;;;;2264075;61;20369;-59
2023/12/18 00:18:13;0.00;0.00;0.62;0.00;0.00;0.62;6.20;4.83;;;22.40;27.90;;;;;;2264662;61;20372;-57
2023/12/18 00:20:58;0.00;0.00;0.62;0.00;0.00;0.62;4.93;4.10;;;22.40;27.90;;;;;;2264560;61;20384;-59
2023/12/18 00:23:43;0.00;0.00;0.62;0.00;0.00;0.62;5.60;4.90;;;22.40;27.90;;;;;;2264336;61;20400;-57
2023/12/18 00:26:27;0.00;0.00;0.62;0.00;0.00;0.62;5.33;4.60;;;22.40;27.90;;;;;;2264172;61;20415;-55
2023/12/18 00:29:13;0.00;0.00;0.62;0.00;0.00;0.62;5.47;4.70;;;22.40;27.90;;;;;;2260917;61;20368;-58
2023/12/18 00:31:57;0.00;0.00;0.62;0.00;0.00;0.62;6.60;5.10;;;22.40;27.90;;;;;;2264296;61;20384;-59
2023/12/18 00:34:42;0.00;0.00;0.62;0.00;0.00;0.62;6.60;5.30;;;22.40;27.90;;;;;;2264607;61;20387;-58
2023/12/18 00:37:27;0.00;0.00;0.62;0.00;0.00;0.62;5.60;4.43;;;22.40;27.90;;;;;;2264173;61;20364;-61
2023/12/18 00:40:12;0.00;0.00;0.62;0.00;0.00;0.62;6.60;5.33;;;22.40;27.90;;;;;;2263991;61;20371;-58
2023/12/18 00:42:56;0.00;0.00;0.62;0.00;0.00;0.62;5.67;4.70;;;22.40;27.90;;;;;;2264151;61;20470;-61
2023/12/18 00:45:42;0.00;0.00;0.62;0.00;0.00;0.62;5.10;4.50;;;22.40;27.90;;;;;;2264466;61;20364;-58
2023/12/18 00:48:27;0.00;0.00;0.62;0.00;0.00;0.62;5.73;4.73;;;22.40;27.90;;;;;;2264485;61;20406;-59
2023/12/18 00:51:12;0.00;0.00;0.62;0.00;0.00;0.62;5.63;4.10;;;22.40;27.90;;;;;;2264280;61;21217;-59
2023/12/18 00:53:56;0.00;0.00;0.62;0.00;0.00;0.62;5.90;4.90;;;22.40;27.90;;;;;;2264439;61;20573;-56
2023/12/18 00:56:41;0.00;0.00;0.62;0.00;0.00;0.62;6.53;4.77;;;22.30;27.80;;;;;;2264631;61;20368;-58
2023/12/18 00:59:26;0.00;0.00;0.62;0.00;0.00;0.62;5.60;3.90;;;22.40;27.90;;;;;;2264054;61;20364;-58
2023/12/18 01:02:12;0.00;0.00;0.62;0.00;0.00;0.62;6.00;4.40;;;22.40;27.90;;;;;;2264173;61;20491;-58
2023/12/18 01:04:56;0.00;0.00;0.62;0.00;0.00;0.62;4.90;4.03;;;22.30;27.90;;;;;;2264406;61;20824;-58
2023/12/18 01:07:42;0.00;0.00;0.62;0.00;0.00;0.62;5.80;5.13;;;22.30;27.90;;;;;;2264237;61;20371;-60
2023/12/18 01:10:26;0.00;0.00;0.62;0.00;0.00;0.62;5.07;4.27;;;22.30;27.80;;;;;;2264344;61;20973;-57
2023/12/18 01:13:11;0.00;0.00;0.62;0.00;0.00;0.62;5.93;4.13;;;22.30;27.80;;;;;;2263471;61;20764;-56
2023/12/18 01:15:56;0.00;0.00;0.62;0.00;0.00;0.62;5.07;4.23;;;22.30;27.80;;;;;;2264488;61;20363;-60
2023/12/18 01:18:42;0.00;0.00;0.62;0.00;0.00;0.62;6.10;4.13;;;22.30;27.80;;;;;;2264514;61;20372;-58
2023/12/18 01:21:27;0.00;0.00;0.62;0.00;0.00;0.62;5.80;4.20;;;22.30;27.80;;;;;;2260666;61;20892;-61
2023/12/18 01:24:11;0.00;0.00;0.62;0.00;0.00;0.62;5.90;4.03;;;22.30;27.80;;;;;;2264466;61;20422;-55
2023/12/18 01:26:56;0.00;0.00;0.62;0.00;0.00;0.62;5.30;3.80;;;22.30;27.80;;;;;;2264249;61;20411;-58
2023/12/18 01:29:40;0.00;0.00;0.62;0.00;0.00;0.62;4.20;3.50;;;22.30;27.80;;;;;;2264280;61;20364;-57
2023/12/18 01:32:25;0.00;0.00;0.62;0.00;0.00;0.62;4.20;3.80;;;22.30;27.80;;;;;;2263912;61;20919;-59
2023/12/18 01:35:11;0.00;0.00;0.62;0.00;0.00;0.62;5.30;3.77;;;22.30;27.80;;;;;;2264301;61;20399;-62
2023/12/18 01:37:56;0.00;0.00;0.62;0.00;0.00;0.62;5.77;3.10;;;22.30;27.80;;;;;;2264482;61;20418;-58
2023/12/18 01:40:40;0.00;0.00;0.62;0.00;0.00;0.62;5.07;3.80;;;22.30;27.80;;;;;;2264242;61;20426;-62
2023/12/18 01:43:26;0.00;0.00;0.62;0.00;0.00;0.62;4.97;3.90;;;22.30;27.80;;;;;;2263535;61;20363;-58
2023/12/18 01:46:18;0.00;0.00;0.62;0.00;0.00;0.62;5.20;4.03;;;22.30;27.80;;;;;;2264283;61;20368;-60
2023/12/18 01:49:03;0.00;0.00;0.62;0.00;0.00;0.62;4.20;3.53;;;22.30;27.80;;;;;;2264195;61;20415;-59
2023/12/18 01:51:50;0.00;0.00;0.62;0.00;0.00;0.62;5.13;3.87;;;22.30;27.80;;;;;;2263534;61;20406;-60
2023/12/18 01:54:35;0.00;0.00;0.62;0.00;0.00;0.62;6.40;3.43;;;22.30;27.80;;;;;;2264307;61;20368;-60
2023/12/18 01:57:20;0.00;0.00;0.62;0.00;0.00;0.62;3.87;3.47;;;22.30;28.30;;;;;;2264435;61;20422;-61
2023/12/18 02:00:06;0.00;0.00;0.62;0.00;0.00;0.62;5.10;3.67;;;22.30;27.80;;;;;;2264304;61;20367;-59
2023/12/18 02:02:51;0.00;0.00;0.62;0.00;0.00;0.62;4.80;3.23;;;22.30;27.80;;;;;;2263876;61;20398;-61
2023/12/18 02:05:36;0.00;0.00;0.62;0.00;0.00;0.62;5.57;3.70;;;22.30;27.80;;;;;;2263753;61;20407;-62
2023/12/18 02:08:23;0.00;0.00;0.62;0.00;0.00;0.62;4.73;3.50;;;22.30;27.80;;;;;;2264229;61;20921;-63
2023/12/18 02:11:08;0.00;0.00;0.62;0.00;0.00;0.62;3.70;3.10;;;22.30;27.80;;;;;;2264119;61;20438;-63
2023/12/18 02:13:53;0.00;0.00;0.62;0.00;0.00;0.62;6.93;3.50;;;22.30;27.80;;;;;;2263497;61;20386;-58
2023/12/18 02:16:38;0.00;0.00;0.62;0.00;0.00;0.62;3.60;3.23;;;22.30;27.70;;;;;;2264259;61;20364;-58
2023/12/18 02:19:25;0.00;0.00;0.62;0.00;0.00;0.62;4.23;3.13;;;22.30;27.80;;;;;;2264128;61;20773;-60
2023/12/18 02:22:10;0.00;0.00;0.62;0.00;0.00;0.62;4.73;3.20;;;22.30;27.70;;;;;;2263156;61;20951;-59
2023/12/18 02:24:56;0.00;0.00;0.62;0.00;0.00;0.62;4.63;3.83;;;22.30;27.70;;;;;;2264121;61;20411;-55
2023/12/18 02:27:40;0.00;0.00;0.62;0.00;0.00;0.62;3.90;3.00;;;22.30;27.70;;;;;;2263686;61;20368;-54
2023/12/18 02:30:25;0.00;0.00;0.62;0.00;0.00;0.62;4.13;3.53;;;22.20;27.60;;;;;;2264287;61;20787;-58
2023/12/18 02:33:10;0.00;0.00;0.62;0.00;0.00;0.62;3.80;3.20;;;22.30;27.70;;;;;;2263768;61;20899;-59
2023/12/18 02:35:56;0.00;0.00;0.62;0.00;0.00;0.62;5.87;3.57;;;22.20;27.60;;;;;;2264093;61;20360;-58
2023/12/18 02:38:41;0.00;0.00;0.62;0.00;0.00;0.62;3.57;3.17;;;22.30;27.70;;;;;;2264175;61;20922;-57
2023/12/18 02:41:27;0.00;0.00;0.62;0.00;0.00;0.62;4.17;3.03;;;22.20;27.60;;;;;;2264271;61;20388;-60
2023/12/18 02:44:11;0.00;0.00;0.62;0.00;0.00;0.62;5.10;3.70;;;22.30;27.70;;;;;;2260722;61;20438;-56
2023/12/18 02:46:56;0.00;0.00;0.62;0.00;0.00;0.62;4.67;3.43;;;22.20;27.60;;;;;;2263503;61;20376;-59
2023/12/18 02:49:41;0.00;0.00;0.62;0.00;0.00;0.62;4.37;3.03;;;22.20;27.70;;;;;;2318348;40;20430;-59
2023/12/18 02:52:26;0.00;0.00;0.62;0.00;0.00;0.62;5.50;2.90;;;22.20;27.70;;;;;;2322759;53;20393;-60
2023/12/18 02:55:12;0.00;0.00;0.62;0.00;0.00;0.62;3.70;3.00;;;22.20;28.10;;;;;;2260841;61;20895;-57
2023/12/18 02:57:57;0.00;0.00;0.62;0.00;0.00;0.62;4.63;3.33;;;22.20;27.70;;;;;;2260417;61;20407;-58
2023/12/18 03:00:42;0.00;0.00;0.62;0.00;0.00;0.62;4.47;3.40;;;22.20;27.60;;;;;;2257419;61;20364;-56
2023/12/18 03:03:27;0.00;0.00;0.62;0.00;0.00;0.62;4.70;3.50;;;22.20;27.60;;;;;;2260481;61;20893;-59
2023/12/18 03:06:11;0.00;0.00;0.62;0.00;0.00;0.62;5.13;3.37;;;22.20;27.60;;;;;;2257212;61;20365;-59
2023/12/18 03:08:56;0.00;0.00;0.62;0.00;0.00;0.62;5.00;4.00;;;22.20;27.60;;;;;;2260688;61;20439;-57
2023/12/18 03:11:41;0.00;0.00;0.62;0.00;0.00;0.62;4.27;3.30;;;22.20;27.60;;;;;;2260020;61;20450;-61
2023/12/18 03:14:27;0.00;0.00;0.62;0.00;0.00;0.62;4.43;3.67;;;22.20;27.60;;;;;;2261003;61;20365;-60
2023/12/18 03:17:11;0.00;0.00;0.62;0.00;0.00;0.62;4.23;3.83;;;22.20;27.60;;;;;;2260566;61;20369;-58
2023/12/18 03:19:57;0.00;0.00;0.62;0.00;0.00;0.62;3.67;2.87;;;22.20;27.60;;;;;;2260264;61;20427;-60
2023/12/18 03:22:42;0.00;0.00;0.62;0.00;0.00;0.62;3.80;2.50;;;22.20;27.60;;;;;;2260178;61;20487;-60
2023/12/18 03:25:26;0.00;0.00;0.62;0.00;0.00;0.62;3.57;3.20;;;22.20;27.60;;;;;;2260618;61;20396;-59
2023/12/18 03:28:13;0.00;0.00;0.62;0.00;0.00;0.62;4.40;3.27;;;22.20;27.60;;;;;;2260224;61;20388;-60
2023/12/18 03:30:59;0.00;0.00;0.62;0.00;0.00;0.62;4.80;3.00;;;22.20;27.60;;;;;;2260682;61;20380;-58
2023/12/18 03:33:43;0.00;0.00;0.62;0.00;0.00;0.62;3.53;3.00;;;22.20;27.60;;;;;;2260043;61;20369;-57
2023/12/18 03:36:28;0.00;0.00;0.62;0.00;0.00;0.62;4.07;3.00;;;22.20;27.60;;;;;;2260748;61;20936;-59
2023/12/18 03:39:13;0.00;0.00;0.62;0.00;0.00;0.62;4.20;3.07;;;22.20;27.60;;;;;;2260645;61;20444;-61
2023/12/18 03:41:57;0.00;0.00;0.62;0.00;0.00;0.62;4.47;3.03;;;22.20;27.60;;;;;;2259969;61;20369;-60
2023/12/18 03:44:43;0.00;0.00;0.62;0.00;0.00;0.62;4.37;3.23;;;22.20;27.60;;;;;;2260725;61;20392;-60
2023/12/18 03:47:29;0.00;0.00;0.62;0.00;0.00;0.62;4.30;3.13;;;22.20;27.60;;;;;;2260735;61;20365;-59
2023/12/18 03:50:14;0.00;0.00;0.62;0.00;0.00;0.62;3.83;2.90;;;22.20;27.60;;;;;;2260309;61;20523;-58
2023/12/18 03:52:59;0.00;0.00;0.62;0.00;0.00;0.62;4.83;3.40;;;22.10;27.50;;;;;;2262280;61;20419;-59
2023/12/18 03:55:44;0.00;0.00;0.62;0.00;0.00;0.62;3.93;3.20;;;22.10;27.50;;;;;;2264594;61;20356;-62
2023/12/18 03:58:28;0.00;0.00;0.62;0.00;0.00;0.62;4.37;3.17;;;22.10;27.50;;;;;;2261423;61;20851;-61
2023/12/18 04:01:13;0.00;0.00;0.62;0.00;0.00;0.62;3.83;3.40;;;22.10;27.50;;;;;;2264628;61;20430;-60
2023/12/18 04:03:58;0.00;0.00;0.62;0.00;0.00;0.62;3.77;2.60;;;22.10;27.50;;;;;;2263999;61;20777;-60
2023/12/18 04:06:43;0.00;0.00;0.62;0.00;0.00;0.62;4.70;3.40;;;22.10;27.50;;;;;;2264738;61;21014;-60
2023/12/18 04:09:28;0.00;0.00;0.62;0.00;0.00;0.62;4.50;2.70;;;22.10;27.50;;;;;;2264426;61;20454;-60
2023/12/18 04:12:13;0.00;0.00;0.62;0.00;0.00;0.62;4.50;3.17;;;22.10;27.50;;;;;;2263813;61;20438;-60
2023/12/18 04:14:57;0.00;0.00;0.62;0.00;0.00;0.62;3.93;2.83;;;22.10;27.50;;;;;;2264434;61;20918;-59
2023/12/18 04:17:41;0.00;0.00;0.62;0.00;0.00;0.62;3.13;2.83;;;22.10;27.50;;;;;;2264625;61;20444;-61
2023/12/18 04:20:27;0.00;0.00;0.62;0.00;0.00;0.62;3.67;2.77;;;22.10;27.50;;;;;;2264490;61;20915;-59
2023/12/18 04:23:12;0.00;0.00;0.62;0.00;0.00;0.62;3.37;2.87;;;22.10;27.50;;;;;;2264302;61;20410;-56
2023/12/18 04:25:56;0.00;0.00;0.62;0.00;0.00;0.62;4.13;3.07;;;22.10;28.00;;;;;;2264291;61;20411;-56
2023/12/18 04:28:41;0.00;0.00;0.62;0.00;0.00;0.62;3.57;2.43;;;22.10;27.50;;;;;;2264561;61;20375;-57
2023/12/18 04:31:26;0.00;0.00;0.62;0.00;0.00;0.62;4.00;3.17;;;22.10;27.50;;;;;;2261429;61;20387;-59
2023/12/18 04:34:10;0.00;0.00;0.62;0.00;0.00;0.62;5.00;3.37;;;22.10;27.50;;;;;;2264132;61;20440;-58
2023/12/18 04:36:56;0.00;0.00;0.62;0.00;0.00;0.62;3.03;2.33;;;22.10;27.40;;;;;;2261400;61;20490;-59
2023/12/18 04:39:42;0.00;0.00;0.62;0.00;0.00;0.62;3.60;2.70;;;22.10;27.40;;;;;;2264464;61;20445;-60
2023/12/18 04:42:27;0.00;0.00;0.62;0.00;0.00;0.62;3.83;2.83;;;22.10;27.40;;;;;;2263881;61;20910;-61
2023/12/18 04:45:12;0.00;0.00;0.62;0.00;0.00;0.62;4.53;3.10;;;22.10;27.50;;;;;;2264453;61;20488;-60
2023/12/18 04:47:56;0.00;0.00;0.62;0.00;0.00;0.62;3.80;2.83;;;22.10;27.40;;;;;;2263796;61;20376;-61
2023/12/18 04:50:41;0.00;0.00;0.62;0.00;0.00;0.62;3.87;2.63;;;22.00;27.40;;;;;;2264051;61;20882;-60
2023/12/18 04:53:27;0.00;0.00;0.62;0.00;0.00;0.62;4.10;2.87;;;22.10;27.40;;;;;;2264176;61;20359;-60
2023/12/18 04:56:11;0.00;0.00;0.62;0.00;0.00;0.62;4.97;2.60;;;22.10;27.40;;;;;;2264351;61;20689;-58
2023/12/18 04:58:56;0.00;0.00;0.62;0.00;0.00;0.62;3.83;3.03;;;22.00;27.40;;;;;;2264413;61;20430;-58
2023/12/18 05:01:40;0.00;0.00;0.62;0.00;0.00;0.62;3.30;2.37;;;22.00;27.40;;;;;;2264044;61;20426;-59
2023/12/18 05:04:25;0.00;0.00;0.62;0.00;0.00;0.62;7.07;3.37;;;22.00;27.40;;;;;;2264256;61;20376;-61
2023/12/18 05:07:11;0.00;0.00;0.62;0.00;0.00;0.62;3.33;2.80;;;22.00;27.40;;;;;;2264184;61;20368;-61
2023/12/18 05:09:57;0.00;0.00;0.62;0.00;0.00;0.62;4.17;2.70;;;22.10;27.40;;;;;;2264051;61;20430;-59
2023/12/18 05:12:41;0.00;0.00;0.62;0.00;0.00;0.62;3.03;2.70;;;22.00;27.40;;;;;;2264092;61;20895;-58
2023/12/18 05:15:26;0.00;0.00;0.62;0.00;0.00;0.62;3.47;2.70;;;22.00;27.40;;;;;;2264227;61;20367;-58
2023/12/18 05:18:10;0.00;0.00;0.62;0.00;0.00;0.62;3.87;2.30;;;22.00;27.40;;;;;;2263935;61;20415;-60
2023/12/18 05:20:57;0.00;0.00;0.62;0.00;0.00;0.62;3.90;3.10;;;22.00;27.40;;;;;;2264337;61;20386;-60
2023/12/18 05:23:42;0.00;0.00;0.62;0.00;0.00;0.62;3.47;3.07;;;22.00;27.30;;;;;;2261017;61;20383;-58
2023/12/18 05:26:28;0.00;0.00;0.62;0.00;0.00;0.62;3.30;2.77;;;22.00;27.30;;;;;;2263969;61;20621;-61
2023/12/18 05:29:12;0.00;0.00;0.62;0.00;0.00;0.62;4.20;2.70;;;22.00;27.30;;;;;;2264490;61;20418;-58
2023/12/18 05:31:57;0.00;0.00;0.62;0.00;0.00;0.62;2.97;2.40;;;22.00;27.40;;;;;;2260896;61;20363;-60
2023/12/18 05:34:41;0.00;0.00;0.62;0.00;0.00;0.62;4.40;2.50;;;22.00;27.30;;;;;;2264547;61;20360;-69
2023/12/18 05:37:26;0.00;0.00;0.62;0.00;0.00;0.62;3.40;2.57;;;22.00;27.40;;;;;;2264670;61;20422;-59
2023/12/18 05:40:11;0.00;0.00;0.62;0.00;0.00;0.62;3.00;2.60;;;22.00;27.40;;;;;;2263749;61;20446;-58
2023/12/18 05:42:57;0.00;0.00;0.62;0.00;0.00;0.62;3.20;2.60;;;22.00;27.30;;;;;;2264120;61;20410;-58
2023/12/18 05:45:42;0.00;0.00;0.62;0.00;0.00;0.62;3.37;2.37;;;22.00;27.30;;;;;;2264245;61;20402;-61
2023/12/18 05:48:27;0.00;0.00;0.62;0.00;0.00;0.62;2.50;1.87;;;22.00;27.30;;;;;;2264054;61;20395;-60
2023/12/18 05:51:19;0.00;0.00;0.62;0.00;0.00;0.62;3.53;2.10;;;22.00;27.40;;;;;;2264261;61;20356;-57
2023/12/18 05:54:04;0.00;0.00;0.62;0.00;0.00;0.62;3.10;2.00;;;21.90;27.30;;;;;;2263989;61;20905;-60
2023/12/18 05:56:49;0.00;0.00;0.62;0.00;0.00;0.62;2.73;2.40;;;21.90;27.30;;;;;;2264379;61;20406;-65
2023/12/18 05:59:35;0.00;0.00;0.62;0.00;0.00;0.62;3.17;1.80;;;22.00;27.40;;;;;;2264111;61;20376;-59
2023/12/18 06:02:20;0.00;0.00;0.62;0.00;0.00;0.62;2.50;1.87;;;21.90;27.30;;;;;;2263517;61;20421;-58
2023/12/18 06:05:07;0.00;0.00;0.62;0.00;0.00;0.62;3.80;2.40;;;21.90;27.30;;;;;;2264987;61;20487;-61
2023/12/18 06:07:52;0.00;0.00;0.62;0.00;0.00;0.62;2.70;1.97;;;21.90;27.30;;;;;;2267156;61;20447;-63
2023/12/18 06:10:36;0.00;0.00;0.62;0.00;0.00;0.62;3.10;2.30;;;21.90;27.30;;;;;;2267092;61;20838;-62
2023/12/18 06:13:21;0.00;0.00;0.62;0.00;0.00;0.62;2.60;2.10;;;21.90;27.30;;;;;;2263848;61;20456;-61
2023/12/18 06:16:07;0.00;0.00;0.62;0.00;0.00;0.62;3.20;2.10;;;21.90;27.30;;;;;;2264189;61;20449;-63
2023/12/18 06:18:52;0.00;0.00;0.62;0.00;0.00;0.62;3.17;2.10;;;21.90;27.30;;;;;;2267044;61;20446;-61
2023/12/18 06:21:40;0.00;0.00;0.62;0.00;0.00;0.62;3.77;2.33;;;21.90;27.30;;;;;;2266672;61;20364;-62
2023/12/18 06:24:25;0.00;0.00;0.62;0.00;0.00;0.62;3.07;2.20;;;21.90;27.30;;;;;;2263750;61;20391;-60
2023/12/18 06:27:09;0.00;0.00;0.62;0.00;0.00;0.62;3.00;2.00;;;21.90;27.30;;;;;;2261672;61;20355;-61
2023/12/18 06:29:54;0.00;0.00;0.62;0.00;0.00;0.62;3.37;2.20;;;21.90;27.30;;;;;;2268164;61;20407;-59
2023/12/18 06:32:40;0.00;0.00;0.62;0.00;0.00;0.62;3.20;2.50;;;21.90;27.30;;;;;;2267279;61;20363;-63
2023/12/18 06:35:24;0.00;0.00;0.62;0.00;0.00;0.62;2.70;2.27;;;21.90;27.40;;;;;;2268029;61;20360;-61
2023/12/18 06:38:09;0.00;0.00;0.62;0.00;0.00;0.62;2.90;2.00;;;21.90;27.90;;;;;;2267840;61;20391;-61
2023/12/18 06:40:53;0.00;0.00;0.62;0.00;0.00;0.62;3.30;2.20;;;21.90;27.30;;;;;;2267472;61;20382;-61
2023/12/18 06:43:39;0.00;0.00;0.62;0.00;0.00;0.62;2.57;1.90;;;21.90;27.30;;;;;;2264378;61;20367;-61
2023/12/18 06:46:24;0.00;0.00;0.62;0.00;0.00;0.62;3.10;2.17;;;21.90;27.30;;;;;;2267633;61;20359;-61
2023/12/18 06:49:09;0.00;0.00;0.62;0.00;0.00;0.62;2.90;2.10;;;21.90;27.40;;;;;;2267731;61;20383;-60
2023/12/18 06:51:54;0.00;0.00;0.62;0.00;0.00;0.62;2.30;2.00;;;21.90;27.30;;;;;;2267088;61;21005;-61
2023/12/18 06:54:38;0.00;0.00;0.62;0.00;0.00;0.62;2.80;2.50;;;21.90;27.30;;;;;;2264228;61;20406;-61
2023/12/18 06:57:23;0.00;0.00;0.62;0.00;0.00;0.62;3.00;2.30;;;21.90;27.30;;;;;;2267731;61;20444;-60
2023/12/18 07:00:09;0.00;0.00;0.62;0.00;0.00;0.62;3.20;2.10;;;21.90;27.30;;;;;;2264762;61;20480;-61
2023/12/18 07:02:54;0.00;0.00;0.62;0.00;0.00;0.62;2.67;2.10;;;21.90;27.30;;;;;;2263752;61;20918;-61
2023/12/18 07:05:42;0.00;0.00;0.62;0.00;0.00;0.62;3.10;2.40;;;21.90;27.40;;;;;;2267721;61;20391;-61
2023/12/18 07:08:29;0.00;0.00;0.62;0.00;0.00;0.62;2.40;1.90;;;21.90;27.30;;;;;;2267637;61;20919;-60
2023/12/18 07:11:13;0.00;0.00;0.62;0.00;0.00;0.62;2.20;1.70;;;21.90;27.90;;;;;;2264620;61;20387;-61
2023/12/18 07:13:58;0.00;0.00;0.62;0.00;0.00;0.62;3.60;2.13;;;21.80;27.30;;;;;;2264530;61;20900;-61
2023/12/18 07:16:43;0.00;0.00;0.62;0.00;0.00;0.62;2.43;1.93;;;21.90;27.30;;;;;;2267645;61;20360;-59
2023/12/18 07:19:28;0.00;0.00;0.62;0.00;0.00;0.62;2.53;2.03;;;21.90;27.30;;;;;;2267998;61;20923;-61
2023/12/18 07:22:14;0.00;0.00;0.62;0.00;0.00;0.62;3.27;2.57;;;21.90;27.30;;;;;;2267686;61;20406;-61
2023/12/18 07:24:59;0.00;0.00;0.62;0.00;0.00;0.62;3.30;2.50;;;21.90;27.30;;;;;;2267347;61;20437;-63
2023/12/18 07:27:44;0.00;0.00;0.62;0.00;0.00;0.62;3.90;2.50;;;21.90;27.40;;;;;;2262180;61;20887;-60
2023/12/18 07:30:29;0.00;0.00;0.62;0.00;0.00;0.62;4.13;3.13;;;21.90;27.40;;;;;;2267631;61;20895;-61
2023/12/18 07:33:13;0.00;0.00;0.62;0.00;0.00;0.62;4.37;3.47;;;21.80;27.30;;;;;;2267557;61;20379;-62
2023/12/18 07:35:58;0.00;0.00;0.62;0.00;0.00;0.62;4.43;3.33;;;21.80;27.30;;;;;;2264477;61;20351;-61
2023/12/18 07:38:45;0.00;0.00;0.62;0.00;0.00;0.62;4.77;3.50;;;21.90;27.40;;;;;;2263793;61;20399;-61
2023/12/18 07:41:30;0.00;0.00;0.62;0.00;0.00;0.62;4.50;3.77;;;21.80;27.30;;;;;;2267621;61;20364;-60
2023/12/18 07:44:14;0.00;0.00;0.62;0.00;0.00;0.62;4.77;3.60;;;21.90;27.40;;;;;;2267669;61;20392;-61
2023/12/18 07:46:59;0.00;0.00;0.62;0.00;0.00;0.62;5.80;4.50;;;21.80;27.30;;;;;;2267054;61;20364;-61
2023/12/18 07:49:44;0.00;0.00;0.62;0.00;0.00;0.62;4.60;4.07;;;21.80;27.30;;;;;;2267641;61;20383;-58
2023/12/18 07:52:29;0.00;0.00;0.62;0.00;0.00;0.62;4.93;4.27;;;21.80;27.30;;;;;;2267137;61;20456;-59
2023/12/18 07:55:15;0.00;0.00;0.62;0.00;0.00;0.62;5.83;4.40;;;21.80;27.30;;;;;;2267539;61;20360;-67
2023/12/18 07:58:00;0.00;0.00;0.62;0.00;0.00;0.62;6.43;4.90;;;21.80;27.30;;;;;;2267676;61;20368;-61
2023/12/18 08:00:44;0.00;0.00;0.62;0.00;0.00;0.62;6.80;4.70;;;21.80;27.30;;;;;;2266923;61;20440;-61
2023/12/18 08:03:29;0.00;0.00;0.62;0.00;0.00;0.62;6.10;4.93;;;21.80;27.30;;;;;;2261429;61;20384;-63
2023/12/18 08:06:13;0.00;0.00;0.62;0.00;0.00;0.62;6.40;4.80;;;21.80;27.30;;;;;;2267561;61;20419;-60
2023/12/18 08:08:58;0.00;0.00;0.62;0.00;0.00;0.62;7.20;5.10;;;21.80;27.30;;;;;;2267416;61;20468;-61
2023/12/18 08:11:44;0.00;0.00;0.62;0.00;0.00;0.62;6.50;5.70;;;21.80;27.30;;;;;;2266896;61;20494;-60
2023/12/18 08:14:29;0.00;0.00;0.62;0.00;0.00;0.62;6.70;5.03;;;21.80;27.30;;;;;;2267768;61;20360;-62
2023/12/18 08:17:15;0.00;0.00;0.62;0.00;0.00;0.62;7.30;5.57;;;21.80;27.30;;;;;;2267457;61;20430;-59
2023/12/18 08:20:00;0.00;0.00;0.62;0.00;0.00;0.62;7.07;5.57;;;21.80;27.30;;;;;;2267209;61;20660;-62
2023/12/18 08:22:44;0.00;0.00;0.62;0.00;0.00;0.62;6.87;5.50;;;21.80;27.30;;;;;;2263049;61;20368;-59
2023/12/18 08:25:29;0.00;0.00;0.62;0.00;0.00;0.62;7.37;5.83;;;21.80;27.30;;;;;;2267952;61;20488;-59
2023/12/18 08:28:15;0.00;0.00;0.62;0.00;0.00;0.62;7.13;5.87;;;21.80;27.30;;;;;;2261829;61;20379;-61
2023/12/18 08:31:00;0.00;0.00;0.62;0.00;0.00;0.62;7.20;4.87;;;21.80;27.30;;;;;;2267260;61;20364;-61
2023/12/18 08:33:44;0.00;0.00;0.62;0.00;0.00;0.62;6.90;5.60;;;21.80;27.30;;;;;;2269690;61;20423;-59
2023/12/18 08:36:30;0.00;0.00;0.62;0.00;0.00;0.62;5.43;4.77;;;21.80;27.30;;;;;;2267439;61;20938;-61
2023/12/18 08:39:14;0.00;0.00;0.62;0.00;0.00;0.62;8.90;6.07;;;21.80;27.30;;;;;;2267317;61;20788;-61
2023/12/18 08:41:59;0.00;0.00;0.62;0.00;0.00;0.62;6.83;5.33;;;21.80;27.30;;;;;;2263999;61;20873;-61
2023/12/18 08:44:45;0.00;0.00;0.62;0.00;0.00;0.62;5.87;4.87;;;21.80;27.30;;;;;;2267275;61;20833;-60
2023/12/18 08:47:31;0.00;0.00;0.62;0.00;0.00;0.62;4.87;4.37;;;21.80;27.30;;;;;;2267309;61;20372;-64
2023/12/18 08:50:16;0.00;0.00;0.62;0.00;0.00;0.62;5.63;5.10;;;21.80;27.30;;;;;;2267581;61;20415;-61
2023/12/18 08:53:00;0.00;0.00;0.62;0.00;0.00;0.62;5.60;4.53;;;21.80;27.30;;;;;;2266483;61;20403;-60
2023/12/18 08:55:45;0.00;0.00;0.62;0.00;0.00;0.62;7.57;4.90;;;21.80;27.30;;;;;;2267474;61;20363;-61
2023/12/18 08:58:29;0.00;0.00;0.62;0.00;0.00;0.62;6.83;5.13;;;21.80;27.30;;;;;;2267578;61;20380;-61
2023/12/18 09:01:15;0.00;0.00;0.62;0.00;0.00;0.62;7.00;5.30;;;21.70;27.20;;;;;;2267359;61;20825;-61
2023/12/18 09:04:00;0.00;0.00;0.62;0.00;0.00;0.62;5.90;4.90;;;21.80;27.80;;;;;;2267405;61;20368;-60
2023/12/18 09:06:45;0.00;0.00;0.62;0.00;0.00;0.62;6.30;5.20;;;21.80;27.30;;;;;;2267217;61;20437;-60
2023/12/18 09:09:30;0.00;0.00;0.62;0.00;0.00;0.62;4.80;4.20;;;21.80;27.30;;;;;;2267905;61;20438;-61
2023/12/18 09:12:14;0.00;0.00;0.62;0.00;0.00;0.62;7.23;5.00;;;21.80;27.30;;;;;;2266969;61;20403;-61
2023/12/18 09:14:59;0.00;0.00;0.62;0.00;0.00;0.62;5.30;3.97;;;21.80;27.30;;;;;;2266835;61;20946;-60
2023/12/18 09:17:45;0.00;0.00;0.62;0.00;0.00;0.62;6.60;5.57;;;21.70;27.30;;;;;;2267570;61;20417;-60
2023/12/18 09:20:29;0.00;0.00;0.62;0.00;0.00;0.62;5.57;4.07;;;21.70;27.20;;;;;;2267482;61;20363;-61
2023/12/18 09:23:15;0.00;0.00;0.62;0.00;0.00;0.62;4.90;4.40;;;21.70;27.20;;;;;;2266745;61;20567;-61
2023/12/18 09:26:00;0.00;0.00;0.62;0.00;0.00;0.62;5.40;4.80;;;21.70;27.30;;;;;;2267412;61;20407;-58
2023/12/18 09:28:45;0.00;0.00;0.62;0.00;0.00;0.62;4.77;4.13;;;21.70;27.20;;;;;;2267219;61;20411;-60
2023/12/18 09:31:29;0.00;0.00;0.62;0.00;0.00;0.62;6.77;5.23;;;21.80;27.30;;;;;;2267573;61;20399;-62
2023/12/18 09:34:16;0.00;0.00;0.62;0.00;0.00;0.62;5.67;4.70;;;21.70;27.20;;;;;;2267396;61;20444;-60
2023/12/18 09:37:00;0.00;0.00;0.62;0.00;0.00;0.62;5.97;4.17;;;21.70;27.20;;;;;;2267034;61;20406;-60
2023/12/18 09:39:45;0.00;0.00;0.62;0.00;0.00;0.62;5.63;4.20;;;21.70;27.30;;;;;;2267334;61;20434;-61
2023/12/18 09:42:30;0.00;0.00;0.62;0.00;0.00;0.62;5.27;4.20;;;21.70;27.30;;;;;;2261183;61;20380;-61
2023/12/18 09:45:17;0.00;0.00;0.62;0.00;0.00;0.62;4.80;3.90;;;21.70;27.30;;;;;;2266937;61;20456;-59
2023/12/18 09:48:02;0.00;0.00;0.62;0.00;0.00;0.62;5.93;5.00;;;21.70;27.30;;;;;;2267489;61;20414;-61
2023/12/18 09:50:48;0.00;0.00;0.62;0.00;0.00;0.62;5.30;3.73;;;21.70;27.30;;;;;;2267414;61;20456;-61
2023/12/18 09:53:33;0.00;0.00;0.62;0.00;0.00;0.62;5.47;4.10;;;21.70;27.30;;;;;;2269208;61;20364;-61
2023/12/18 09:56:20;0.00;0.00;0.62;0.00;0.00;0.62;5.43;4.20;;;21.70;27.30;;;;;;2266998;61;20382;-59
2023/12/18 09:59:05;0.00;0.00;0.62;0.00;0.00;0.62;4.77;4.27;;;21.70;27.30;;;;;;2266649;61;20391;-61
2023/12/18 10:01:53;0.00;0.00;0.62;0.00;0.00;0.62;4.43;3.40;;;21.70;27.30;;;;;;2269690;61;20443;-60
2023/12/18 10:04:41;0.00;0.00;0.62;0.00;0.00;0.62;5.00;4.00;;;21.70;27.30;;;;;;2268150;61;20383;-61
2023/12/18 10:07:27;0.00;0.00;0.62;0.00;0.00;0.62;4.67;3.63;;;21.70;27.30;;;;;;2267765;61;20371;-58
2023/12/18 10:10:13;0.00;0.00;0.62;0.00;0.00;0.62;4.30;3.60;;;21.70;27.30;;;;;;2264766;61;20388;-60
2023/12/18 10:12:57;0.00;0.00;0.62;0.00;0.00;0.62;5.63;3.80;;;21.70;27.30;;;;;;2267331;61;20368;-62
2023/12/18 10:15:42;0.00;0.00;0.62;0.00;0.00;0.62;5.07;3.80;;;21.70;27.30;;;;;;2267892;61;20364;-60
2023/12/18 10:18:27;0.00;0.00;0.62;0.00;0.00;0.62;4.53;3.23;;;21.70;27.30;;;;;;2267986;61;20518;-61
2023/12/18 10:21:12;0.00;0.00;0.62;0.00;0.00;0.62;5.10;4.30;;;21.70;27.30;;;;;;2267361;61;20810;-61
2023/12/18 10:23:58;0.00;0.00;0.62;0.00;0.00;0.62;4.70;3.63;;;21.70;27.80;;;;;;2268071;61;20372;-60
2023/12/18 10:26:45;0.00;0.00;0.62;0.00;0.00;0.62;3.73;3.30;;;21.70;27.30;;;;;;2270408;61;20375;-61
2023/12/18 10:29:30;0.00;0.00;0.62;0.00;0.00;0.62;4.60;4.07;;;21.70;27.30;;;;;;2264479;61;20387;-61
2023/12/18 10:32:16;0.00;0.00;0.62;0.00;0.00;0.62;4.50;3.30;;;21.70;27.30;;;;;;2267669;61;20364;-61
2023/12/18 10:35:02;0.00;0.00;0.62;0.00;0.00;0.62;4.10;3.60;;;21.70;27.30;;;;;;2268261;61;20376;-59
2023/12/18 10:37:51;0.00;0.00;0.62;0.00;0.00;0.62;5.17;4.00;;;21.70;27.30;;;;;;2267643;61;20371;-62
2023/12/18 10:40:38;0.00;0.00;0.62;0.00;0.00;0.62;4.63;3.53;;;21.70;27.30;;;;;;2264586;61;20364;-58
2023/12/18 10:43:24;0.00;0.00;0.62;0.00;0.00;0.62;4.60;3.20;;;21.70;27.30;;;;;;2267187;61;20364;-59
2023/12/18 10:46:11;0.00;0.00;0.62;0.00;0.00;0.62;4.87;3.30;;;21.70;27.30;;;;;;2264452;61;20472;-61
2023/12/18 10:48:58;0.00;0.00;0.62;0.00;0.00;0.62;4.20;3.47;;;21.70;27.80;;;;;;2268056;61;20796;-60
2023/12/18 10:51:45;0.00;0.00;0.62;0.00;0.00;0.62;3.50;2.90;;;21.70;27.30;;;;;;2267284;61;20392;-59